Wolverine, MI

10:13 AM EST on December 21, 2014 (GMT -0500)
Bows Lake | Change Station
CLOSE
Current Station
Personal Weather Station
Location: Vanderbilt, MI
Elevation: 1202 ft
Nearby Weather Stations

Elev 1202 ft 45.15 °N, 84.77 °W | Updated 16 seconds ago

Overcast
Overcast
27.4 °F
Feels Like 27 °F
N
1.0
Wind Variable Wind from SW
Gusts 4.3 mph

Today
High -- | Low -- °F
--% Chance of Precip.
Yesterday
High -- | Low -- °F
Precip. -- in
8:14 AM 4:58 PM
Waning Crescent, 0% visible
Pressure 30.26 in
Visibility 2.5 miles
Clouds Overcast 500 ft
Windchill 27 °F
Dew Point 25 °F
Humidity 90%
Rainfall 0.00 in
Snow Depth Not available.
UV 0 out of 12
Pollen .10 out of 12
Air Quality Not available.
Flu Activity Not available.
METAR KGLR 211453Z AUTO 18006KT 2 1/2SM BR OVC005 M04/M05 A3019 RMK AO2 SLP245 T10391050 55001

More Conditions Fewer Conditions

Pressure 30.26 in
Visibility 2.5 miles
Clouds Overcast 500 ft
Windchill 27 °F
Dew Point 25 °F
Humidity 90%
Rainfall 0.00 in
Snow Depth Not available.
UV 0 out of 12
Pollen .10 out of 12
Air Quality Not available.
Flu Activity Not available.
METAR KGLR 211453Z AUTO 18006KT 2 1/2SM BR OVC005 M04/M05 A3019 RMK AO2 SLP245 T10391050 55001

More Conditions Fewer Conditions

Nowcast | as of 10:00 am EST on December 21, 2014

At 11 am...cloudy. Temperature 27. Light winds. At 1 PM...cloudy. Temperature 31. South winds 5 mph. At 3 PM...cloudy. Temperature 32. Southeast winds 6 mph. At 5 PM...cloudy. Chance of light freezing drizzle and flurries. Temperature 32. Southeast winds 7 mph.

×

10-Day Weather Forecast

Almanac

Astronomy

Dec. 21, 2014 Rise Set
Actual Time
Civil Twilight
Nautical Twilight
Astronomical Twilight
Moon
Length of Visible Light
Length of Day
Tomorrow will be .
, % of the Moon is Illuminated

Today's Extremes

State Highs State Lows

Community

WunderPhotos

Upload Photos

1,779,408 photos uploaded!

WunderBlogs® & News

Nearby

Air Quality

  Air Quality AQ Index Pollutant
Not available.

Snow Depth

Station Depth Elevation

Earthquake Activity

City Distance Mag. Time & Date
Minimum magnitude displayed is 2.5.

Coastal Water Temperatures

Place Temperature

Nearby Weather Stations